createdAt,value
2018-04-01T00:01:50.999Z,10.40
2018-04-01T00:04:17.112Z,10.40
2018-04-01T00:06:43.231Z,11.30
2018-04-01T00:09:09.420Z,11.20
2018-04-01T00:11:36.291Z,9.57
2018-04-01T00:14:02.451Z,11.30
2018-04-01T00:16:28.533Z,10.13
2018-04-01T00:18:54.713Z,12.20
2018-04-01T00:21:20.826Z,11.73
2018-04-01T00:23:47.939Z,11.50
2018-04-01T00:26:14.165Z,12.30
2018-04-01T00:28:40.292Z,13.03
2018-04-01T00:31:06.421Z,13.63
2018-04-01T00:33:32.547Z,13.30
2018-04-01T00:35:58.675Z,13.10
2018-04-01T00:38:24.835Z,13.60
2018-04-01T00:40:50.982Z,15.17
2018-04-01T00:43:17.080Z,14.27
2018-04-01T00:45:43.200Z,14.53
2018-04-01T00:48:09.308Z,15.80
2018-04-01T00:50:35.408Z,15.93
2018-04-01T00:53:02.272Z,15.47
2018-04-01T00:55:28.399Z,14.93
2018-04-01T00:57:54.512Z,15.57
2018-04-01T01:00:20.642Z,17.80
2018-04-01T01:02:46.770Z,16.27
2018-04-01T01:05:13.080Z,16.10
2018-04-01T01:07:39.951Z,15.80
2018-04-01T01:10:06.101Z,16.63
2018-04-01T01:12:32.200Z,16.60
2018-04-01T01:14:58.327Z,16.77
2018-04-01T01:17:24.488Z,16.17
2018-04-01T01:19:50.604Z,17.40
2018-04-01T01:22:16.764Z,17.67
2018-04-01T01:24:42.902Z,19.77
2018-04-01T01:27:09.845Z,18.00
2018-04-01T01:29:36.787Z,19.93
2018-04-01T01:32:02.873Z,22.40
2018-04-01T01:34:29.007Z,21.20
2018-04-01T01:36:55.851Z,23.90
2018-04-01T01:39:22.032Z,21.90
2018-04-01T01:41:48.904Z,22.10
2018-04-01T01:44:15.074Z,22.90
2018-04-01T01:46:41.203Z,22.20
2018-04-01T01:49:07.389Z,24.10
2018-04-01T01:51:33.536Z,23.40
2018-04-01T01:53:59.623Z,21.87
2018-04-01T01:56:25.738Z,21.70
2018-04-01T01:58:52.582Z,22.27
2018-04-01T02:01:19.474Z,21.17
2018-04-01T02:03:45.581Z,20.57
2018-04-01T02:06:11.840Z,20.17
2018-04-01T02:08:37.973Z,20.80
2018-04-01T02:11:04.094Z,24.30
2018-04-01T02:13:30.231Z,22.37
2018-04-01T02:15:56.370Z,23.73
2018-04-01T02:18:23.237Z,21.87
2018-04-01T02:20:49.347Z,22.33
2018-04-01T02:23:16.270Z,23.10
2018-04-01T02:25:42.365Z,24.13
2018-04-01T02:28:08.479Z,24.03
2018-04-01T02:30:34.619Z,26.67
2018-04-01T02:33:00.744Z,27.07
2018-04-01T02:35:26.930Z,27.23
2018-04-01T02:37:53.770Z,27.07
2018-04-01T02:40:20.726Z,27.20
2018-04-01T02:42:46.882Z,27.37
2018-04-01T02:45:13.043Z,26.03
2018-04-01T02:47:39.153Z,27.07
2018-04-01T02:50:05.345Z,26.67
2018-04-01T02:52:31.484Z,31.03
2018-04-01T02:54:57.609Z,28.77
2018-04-01T02:57:23.741Z,32.73
2018-04-01T02:59:49.865Z,31.10
2018-04-01T03:02:16.019Z,31.30
2018-04-01T03:04:42.198Z,29.03
2018-04-01T03:07:08.349Z,34.80
2018-04-01T03:09:34.506Z,31.53
2018-04-01T03:12:00.692Z,28.97
2018-04-01T03:14:27.540Z,31.70
2018-04-01T03:16:53.708Z,29.33
2018-04-01T03:19:19.820Z,30.70
2018-04-01T03:21:46.028Z,30.40
2018-04-01T03:24:12.171Z,30.27
2018-04-01T03:26:38.317Z,32.70
2018-04-01T03:29:04.433Z,30.67
2018-04-01T03:31:30.594Z,33.03
2018-04-01T03:33:57.469Z,31.30
2018-04-01T03:36:23.625Z,29.87
2018-04-01T03:38:49.727Z,29.90
2018-04-01T03:41:15.911Z,34.53
2018-04-01T03:43:42.050Z,33.10
2018-04-01T03:46:08.964Z,32.37
2018-04-01T03:48:35.110Z,30.20
2018-04-01T03:51:01.237Z,30.43
2018-04-01T03:53:27.325Z,31.57
2018-04-01T03:55:53.452Z,31.27
2018-04-01T03:58:19.568Z,31.13
2018-04-01T04:00:45.692Z,32.90
2018-04-01T04:03:11.866Z,31.67
2018-04-01T04:05:37.952Z,31.63
2018-04-01T04:08:04.157Z,32.30
2018-04-01T04:10:30.344Z,31.43
2018-04-01T04:12:56.784Z,31.87
2018-04-01T04:15:23.642Z,31.13
2018-04-01T04:17:50.445Z,31.47
2018-04-01T04:20:16.558Z,29.60
2018-04-01T04:22:42.669Z,28.30
2018-04-01T04:25:08.806Z,29.00
2018-04-01T04:27:34.933Z,29.10
2018-04-01T04:30:01.436Z,33.43
2018-04-01T04:32:27.548Z,30.70
2018-04-01T04:34:54.396Z,31.93
2018-04-01T04:37:21.305Z,28.60
2018-04-01T04:39:47.485Z,31.37
2018-04-01T04:42:13.629Z,28.43
2018-04-01T04:44:39.744Z,28.70
2018-04-01T04:47:05.881Z,29.77
2018-04-01T04:49:32.066Z,27.30
2018-04-01T04:51:58.937Z,25.57
2018-04-01T04:54:25.075Z,25.30
2018-04-01T04:56:51.234Z,26.30
2018-04-01T04:59:17.365Z,25.97
2018-04-01T05:01:44.213Z,25.00
2018-04-01T05:04:10.394Z,24.97
2018-04-01T05:06:36.517Z,26.93
2018-04-01T05:09:02.705Z,29.60
2018-04-01T05:11:28.878Z,26.80
2018-04-01T05:13:54.989Z,26.83
2018-04-01T05:16:21.506Z,27.80
2018-04-01T05:18:48.464Z,27.60
2018-04-01T05:21:15.352Z,26.90
2018-04-01T05:23:41.505Z,26.20
2018-04-01T05:26:07.668Z,29.20
2018-04-01T05:28:33.842Z,29.33
2018-04-01T05:30:59.978Z,30.57
2018-04-01T05:33:26.110Z,29.10
2018-04-01T05:35:52.276Z,28.00
2018-04-01T05:38:18.372Z,29.97
2018-04-01T05:40:44.551Z,31.90
2018-04-01T05:43:10.707Z,28.33
2018-04-01T05:45:36.864Z,30.27
2018-04-01T05:48:03.775Z,30.37
2018-04-01T05:50:29.969Z,25.40
2018-04-01T05:52:56.169Z,23.30
2018-04-01T05:55:23.086Z,22.20
2018-04-01T05:57:49.207Z,22.50
2018-04-01T06:00:15.332Z,23.67
2018-04-01T06:02:41.459Z,23.40
2018-04-01T06:05:07.581Z,23.40
2018-04-01T06:07:33.717Z,23.53
2018-04-01T06:09:59.873Z,22.90
2018-04-01T06:12:26.751Z,23.07
2018-04-01T06:14:52.923Z,25.43
2018-04-01T06:17:19.067Z,25.83
2018-04-01T06:19:45.185Z,23.17
2018-04-01T06:22:11.326Z,24.50
2018-04-01T06:24:38.248Z,23.97
2018-04-01T06:27:04.366Z,29.73
2018-04-01T06:29:30.522Z,25.97
2018-04-01T06:31:57.382Z,24.90
2018-04-01T06:34:23.770Z,25.80
2018-04-01T06:36:49.908Z,24.97
2018-04-01T06:39:16.032Z,22.60
2018-04-01T06:41:42.948Z,20.60
2018-04-01T06:44:09.084Z,21.40
2018-04-01T06:46:36.227Z,20.43
2018-04-01T06:49:02.380Z,19.13
2018-04-01T06:51:28.541Z,19.30
2018-04-01T06:53:54.705Z,19.90
2018-04-01T06:56:20.847Z,16.63
2018-04-01T06:58:46.954Z,19.27
2018-04-01T07:01:13.094Z,18.60
2018-04-01T07:03:39.225Z,19.97
2018-04-01T07:06:05.375Z,20.60
2018-04-01T07:08:32.293Z,21.90
2018-04-01T07:10:58.435Z,20.90
2018-04-01T07:13:24.641Z,20.47
2018-04-01T07:15:50.753Z,21.60
2018-04-01T07:18:16.890Z,21.97
2018-04-01T07:20:43.014Z,21.30
2018-04-01T07:23:09.131Z,20.90
2018-04-01T07:25:35.319Z,20.17
2018-04-01T07:28:02.215Z,18.27
2018-04-01T07:30:28.344Z,19.10
2018-04-01T07:32:54.473Z,18.57
2018-04-01T07:35:20.607Z,19.10
2018-04-01T07:37:46.772Z,18.80
2018-04-01T07:40:13.632Z,16.80
2018-04-01T07:42:39.795Z,17.37
2018-04-01T07:45:05.902Z,15.90
2018-04-01T07:47:32.028Z,18.20
2018-04-01T07:49:58.141Z,19.00
2018-04-01T07:52:24.272Z,18.30
2018-04-01T07:54:50.421Z,16.60
2018-04-01T07:57:16.542Z,16.90
2018-04-01T07:59:42.664Z,16.23
2018-04-01T08:02:08.791Z,17.83
2018-04-01T08:04:34.932Z,17.70
2018-04-01T08:07:01.032Z,17.10
2018-04-01T08:09:27.168Z,15.97
2018-04-01T08:11:53.304Z,16.17
2018-04-01T08:14:19.436Z,15.47
2018-04-01T08:16:45.604Z,15.40
2018-04-01T08:19:12.490Z,18.60
2018-04-01T08:21:38.616Z,17.73
2018-04-01T08:24:04.778Z,19.50
2018-04-01T08:26:30.935Z,19.13
2018-04-01T08:28:57.807Z,21.33
2018-04-01T08:31:23.933Z,21.90
2018-04-01T08:33:50.059Z,20.17
2018-04-01T08:36:16.186Z,20.00
2018-04-01T08:38:42.309Z,18.47
2018-04-01T08:41:08.450Z,22.90
2018-04-01T08:43:34.583Z,21.17
2018-04-01T08:46:01.065Z,19.70
2018-04-01T08:48:27.530Z,22.60
2018-04-01T08:50:53.645Z,21.93
2018-04-01T08:53:20.490Z,19.37
2018-04-01T08:55:47.372Z,20.30
2018-04-01T08:58:13.547Z,18.30
2018-04-01T09:00:40.446Z,19.00
2018-04-01T09:03:06.584Z,17.40
2018-04-01T09:05:32.692Z,18.10
2018-04-01T09:07:58.816Z,16.00
2018-04-01T09:10:25.044Z,17.43
2018-04-01T09:12:51.152Z,17.37
2018-04-01T09:15:17.270Z,17.70
2018-04-01T09:17:43.397Z,17.60
2018-04-01T09:20:09.557Z,21.30
2018-04-01T09:22:35.731Z,18.30
2018-04-01T09:25:02.629Z,16.47
2018-04-01T09:27:28.790Z,19.37
2018-04-01T09:29:54.922Z,20.00
2018-04-01T09:32:21.049Z,20.03
2018-04-01T09:34:47.144Z,19.97
2018-04-01T09:37:13.248Z,21.37
2018-04-01T09:39:39.365Z,20.70
2018-04-01T09:42:05.482Z,23.53
2018-04-01T09:44:31.627Z,22.73
2018-04-01T09:46:57.761Z,20.70
2018-04-01T09:49:23.903Z,17.70
2018-04-01T09:51:50.033Z,19.53
2018-04-01T09:54:16.271Z,15.83
2018-04-01T09:56:42.421Z,16.50
2018-04-01T09:59:08.495Z,14.83
2018-04-01T10:01:35.656Z,14.97
2018-04-01T10:04:01.969Z,13.00
2018-04-01T10:06:28.248Z,13.70
2018-04-01T10:08:54.548Z,13.23
2018-04-01T10:11:20.903Z,12.70
2018-04-01T10:13:47.208Z,15.27
2018-04-01T10:16:13.737Z,14.57
2018-04-01T10:18:40.024Z,12.90
2018-04-01T10:21:07.155Z,12.30
2018-04-01T10:23:33.508Z,12.80
2018-04-01T10:26:00.544Z,13.73
2018-04-01T10:28:26.824Z,13.27
2018-04-01T10:30:53.165Z,13.67
2018-04-01T10:33:19.447Z,13.33
2018-04-01T10:35:46.470Z,13.50
2018-04-01T10:38:12.769Z,14.67
2018-04-01T10:40:39.880Z,14.80
2018-04-01T10:43:06.867Z,13.83
2018-04-01T10:45:33.227Z,13.60
2018-04-01T10:47:59.526Z,14.67
2018-04-01T10:50:25.795Z,13.20
2018-04-01T10:52:52.108Z,14.40
2018-04-01T10:55:18.248Z,14.77
2018-04-01T10:57:44.364Z,16.70
2018-04-01T11:00:10.452Z,16.47
2018-04-01T11:02:36.584Z,16.53
2018-04-01T11:05:02.713Z,15.07
2018-04-01T11:07:28.838Z,16.10
2018-04-01T11:09:54.943Z,16.20
2018-04-01T11:12:21.818Z,15.07
2018-04-01T11:14:47.949Z,18.30
2018-04-01T11:17:14.123Z,17.53
2018-04-01T11:19:40.991Z,17.47
2018-04-01T11:22:07.120Z,19.67
2018-04-01T11:24:33.278Z,18.63
2018-04-01T11:26:59.409Z,16.63
2018-04-01T11:29:25.575Z,17.67
2018-04-01T11:31:52.488Z,17.70
2018-04-01T11:34:18.600Z,16.43
2018-04-01T11:36:44.721Z,16.97
2018-04-01T11:39:10.834Z,18.10
2018-04-01T11:41:36.946Z,18.17
2018-04-01T11:44:03.088Z,17.80
2018-04-01T11:46:29.261Z,16.40
2018-04-01T11:48:55.419Z,16.60
2018-04-01T11:51:22.259Z,16.30
2018-04-01T11:53:49.179Z,16.30
2018-04-01T11:56:15.279Z,15.40
2018-04-01T11:58:42.157Z,15.33
2018-04-01T12:01:09.005Z,14.93
2018-04-01T12:03:35.855Z,17.43
2018-04-01T12:06:02.722Z,14.90
2018-04-01T12:08:28.826Z,15.97
2018-04-01T12:10:55.718Z,15.20
2018-04-01T12:13:21.820Z,15.23
2018-04-01T12:15:48.019Z,13.50
2018-04-01T12:18:14.932Z,13.73
2018-04-01T12:20:41.181Z,12.20
2018-04-01T12:23:07.300Z,12.13
2018-04-01T12:25:33.427Z,11.27
2018-04-01T12:27:59.675Z,10.63
2018-04-01T12:30:26.551Z,11.47
2018-04-01T12:32:52.662Z,10.10
2018-04-01T12:35:19.512Z,8.57
2018-04-01T12:37:45.725Z,8.03
2018-04-01T12:40:12.585Z,7.20
2018-04-01T12:42:38.719Z,6.70
2018-04-01T12:45:04.855Z,6.17
2018-04-01T12:47:30.939Z,6.30
2018-04-01T12:49:57.791Z,6.80
2018-04-01T12:52:24.702Z,7.47
2018-04-01T12:54:51.000Z,6.87
2018-04-01T12:57:17.124Z,7.37
2018-04-01T12:59:43.248Z,6.07
2018-04-01T13:02:09.404Z,7.23
2018-04-01T13:04:35.538Z,7.10
2018-04-01T13:07:03.172Z,7.53
2018-04-01T13:09:33.758Z,6.87
2018-04-01T13:11:59.915Z,7.30
2018-04-01T13:14:26.114Z,7.90
2018-04-01T13:16:52.975Z,7.70
2018-04-01T13:19:19.092Z,8.00
2018-04-01T13:21:45.938Z,7.20
2018-04-01T13:24:12.885Z,8.10
2018-04-01T13:26:38.975Z,7.80
2018-04-01T13:29:05.157Z,8.07
2018-04-01T13:31:31.243Z,7.20
2018-04-01T13:33:58.188Z,7.50
2018-04-01T13:36:24.315Z,8.13
2018-04-01T13:38:50.436Z,8.30
2018-04-01T13:41:16.542Z,8.77
2018-04-01T13:43:42.672Z,8.07
2018-04-01T13:46:08.845Z,9.30
2018-04-01T13:48:34.987Z,8.97
2018-04-01T13:51:01.450Z,7.90
2018-04-01T13:53:27.596Z,8.77
2018-04-01T13:55:53.758Z,9.87
2018-04-01T13:58:19.880Z,9.10
2018-04-01T14:00:48.187Z,9.00
2018-04-01T14:03:14.301Z,9.60
2018-04-01T14:05:40.428Z,9.73
2018-04-01T14:08:06.853Z,9.20
2018-04-01T14:10:32.995Z,9.10
2018-04-01T14:12:59.105Z,9.30
2018-04-01T14:15:25.269Z,10.33
2018-04-01T14:17:51.407Z,8.80
2018-04-01T14:20:18.438Z,9.70
2018-04-01T14:22:44.671Z,9.53
2018-04-01T14:25:10.832Z,9.10
2018-04-01T14:27:36.995Z,9.90
2018-04-01T14:30:03.167Z,9.47
2018-04-01T14:32:29.319Z,10.70
2018-04-01T14:34:55.448Z,10.47
2018-04-01T14:37:21.575Z,11.53
2018-04-01T14:39:48.500Z,11.93
2018-04-01T14:42:14.688Z,11.77
2018-04-01T14:44:40.804Z,12.50
2018-04-01T14:47:07.026Z,11.83
2018-04-01T14:49:33.384Z,11.23
2018-04-01T14:51:59.516Z,11.93
2018-04-01T14:54:25.620Z,11.23
2018-04-01T14:56:51.760Z,11.90
2018-04-01T14:59:17.929Z,12.63
2018-04-01T15:01:44.114Z,11.97
2018-04-01T15:04:10.289Z,11.67
2018-04-01T15:06:36.428Z,12.57
2018-04-01T15:09:03.302Z,12.17
2018-04-01T15:11:29.561Z,11.17
2018-04-01T15:13:55.688Z,11.83
2018-04-01T15:16:21.843Z,10.67
2018-04-01T15:18:47.951Z,11.43
2018-04-01T15:21:14.069Z,10.80
2018-04-01T15:23:40.214Z,11.07
2018-04-01T15:26:08.170Z,11.00
2018-04-01T15:28:34.284Z,10.93
2018-04-01T15:31:00.423Z,11.40
2018-04-01T15:33:26.543Z,10.10
2018-04-01T15:35:52.710Z,11.43
2018-04-01T15:38:19.614Z,8.80
2018-04-01T15:40:46.042Z,7.87
2018-04-01T15:43:12.423Z,6.70
2018-04-01T15:45:38.516Z,6.97
2018-04-01T15:48:04.614Z,8.10
2018-04-01T15:50:31.796Z,7.33
2018-04-01T15:52:57.942Z,7.10
2018-04-01T15:55:24.806Z,7.20
2018-04-01T15:57:50.963Z,6.67
2018-04-01T16:00:17.062Z,7.30
2018-04-01T16:02:43.952Z,6.87
2018-04-01T16:05:10.887Z,6.80
2018-04-01T16:07:37.041Z,5.90
2018-04-01T16:10:03.145Z,6.00
2018-04-01T16:12:30.457Z,5.63
2018-04-01T16:14:57.299Z,5.93
2018-04-01T16:17:24.407Z,5.13
2018-04-01T16:19:50.539Z,5.27
2018-04-01T16:22:17.467Z,5.53
2018-04-01T16:24:43.570Z,6.17
2018-04-01T16:27:10.079Z,6.97
2018-04-01T16:29:38.509Z,6.03
2018-04-01T16:32:04.708Z,6.60
2018-04-01T16:34:32.327Z,6.43
2018-04-01T16:36:58.504Z,5.97
2018-04-01T16:39:25.230Z,7.03
2018-04-01T16:41:51.434Z,7.20
2018-04-01T16:44:17.571Z,7.23
2018-04-01T16:46:44.443Z,7.80
2018-04-01T16:49:10.573Z,8.27
2018-04-01T16:51:36.707Z,7.53
2018-04-01T16:54:02.864Z,8.13
2018-04-01T16:56:28.949Z,8.50
2018-04-01T16:58:55.100Z,8.40
2018-04-01T17:01:21.904Z,8.63
2018-04-01T17:03:48.095Z,9.00
2018-04-01T17:06:14.216Z,8.60
2018-04-01T17:08:40.367Z,9.60
2018-04-01T17:11:07.255Z,6.90
2018-04-01T17:13:33.653Z,7.90
2018-04-01T17:16:00.498Z,7.97
2018-04-01T17:18:26.656Z,8.47
2018-04-01T17:20:52.812Z,8.57
2018-04-01T17:23:18.935Z,9.03
2018-04-01T17:25:45.092Z,9.13
2018-04-01T17:28:11.267Z,10.33
2018-04-01T17:30:37.407Z,10.57
2018-04-01T17:33:03.534Z,9.30
2018-04-01T17:35:29.704Z,11.27
2018-04-01T17:37:56.618Z,11.60
2018-04-01T17:40:23.072Z,10.67
2018-04-01T17:42:50.004Z,11.20
2018-04-01T17:45:16.927Z,10.03
2018-04-01T17:47:43.043Z,10.00
2018-04-01T17:50:09.185Z,11.20
2018-04-01T17:52:35.294Z,11.80
2018-04-01T17:55:01.455Z,11.30
2018-04-01T17:57:27.879Z,11.43
2018-04-01T17:59:53.973Z,11.00
2018-04-01T18:02:20.113Z,12.90
2018-04-01T18:04:46.228Z,10.73
2018-04-01T18:07:12.694Z,11.90
2018-04-01T18:09:38.831Z,12.20
2018-04-01T18:12:05.084Z,11.83
2018-04-01T18:14:32.003Z,10.80
2018-04-01T18:16:58.899Z,11.30
2018-04-01T18:19:25.199Z,11.17
2018-04-01T18:21:51.326Z,11.43
2018-04-01T18:24:17.556Z,13.20
2018-04-01T18:26:44.430Z,10.93
2018-04-01T18:29:10.585Z,11.90
2018-04-01T18:31:36.796Z,13.90
2018-04-01T18:34:02.984Z,13.00
2018-04-01T18:36:29.124Z,15.43
2018-04-01T18:38:56.118Z,14.00
2018-04-01T18:41:22.275Z,14.70
2018-04-01T18:43:49.482Z,14.63
2018-04-01T18:46:15.697Z,15.10
2018-04-01T18:48:41.880Z,14.00
2018-04-01T18:51:08.157Z,13.70
2018-04-01T18:53:34.455Z,15.67
2018-04-01T18:56:01.012Z,15.40
2018-04-01T18:58:27.259Z,15.50
2018-04-01T19:00:53.458Z,14.47
2018-04-01T19:03:19.610Z,14.53
2018-04-01T19:05:45.763Z,15.23
2018-04-01T19:08:12.036Z,13.83
2018-04-01T19:10:38.946Z,16.30
2018-04-01T19:13:05.109Z,15.33
2018-04-01T19:15:32.063Z,13.70
2018-04-01T19:17:58.513Z,14.23
2018-04-01T19:20:25.201Z,14.80
2018-04-01T19:22:51.664Z,17.67
2018-04-01T19:25:18.892Z,14.83
2018-04-01T19:27:45.590Z,12.70
2018-04-01T19:30:13.068Z,14.43
2018-04-01T19:32:39.400Z,15.27
2018-04-01T19:35:06.261Z,14.33
2018-04-01T19:37:32.589Z,15.70
2018-04-01T19:39:58.905Z,15.47
2018-04-01T19:42:25.347Z,17.67
2018-04-01T19:44:51.693Z,15.40
2018-04-01T19:47:17.994Z,17.10
2018-04-01T19:49:44.381Z,16.60
2018-04-01T19:52:11.417Z,16.03
2018-04-01T19:54:38.607Z,16.80
2018-04-01T19:57:05.901Z,17.70
2018-04-01T19:59:32.236Z,17.00
2018-04-01T20:01:58.590Z,16.83
2018-04-01T20:04:25.673Z,16.50
2018-04-01T20:06:51.986Z,18.60
2018-04-01T20:09:18.320Z,17.57
2018-04-01T20:11:44.664Z,18.27
2018-04-01T20:14:10.970Z,17.47
2018-04-01T20:16:37.994Z,17.33
2018-04-01T20:19:04.414Z,17.83
2018-04-01T20:21:35.595Z,17.70
2018-04-01T20:24:02.680Z,18.70
2018-04-01T20:26:29.172Z,17.33
2018-04-01T20:28:56.229Z,16.50
2018-04-01T20:31:23.289Z,17.83
2018-04-01T20:33:49.606Z,17.77
2018-04-01T20:36:16.769Z,16.80
2018-04-01T20:38:43.084Z,17.93
2018-04-01T20:41:10.130Z,17.23
2018-04-01T20:43:37.159Z,17.53
2018-04-01T20:46:03.481Z,14.30
2018-04-01T20:48:29.819Z,16.70
2018-04-01T20:50:56.180Z,15.97
2018-04-01T20:53:23.282Z,14.77
2018-04-01T20:55:49.625Z,17.10
2018-04-01T20:58:16.904Z,17.53
2018-04-01T21:00:43.961Z,17.10
2018-04-01T21:03:10.984Z,17.07
2018-04-01T21:05:37.312Z,18.17
2018-04-01T21:08:04.384Z,15.40
2018-04-01T21:10:31.427Z,18.03
2018-04-01T21:12:58.504Z,16.93
2018-04-01T21:15:24.881Z,17.90
2018-04-01T21:17:51.205Z,17.00
2018-04-01T21:20:17.493Z,17.20
2018-04-01T21:22:43.795Z,17.87
2018-04-01T21:25:10.076Z,17.43
2018-04-01T21:27:36.425Z,17.50
2018-04-01T21:30:02.763Z,18.90
2018-04-01T21:32:29.098Z,17.33
2018-04-01T21:34:55.406Z,17.60
2018-04-01T21:37:21.709Z,17.40
2018-04-01T21:39:48.002Z,17.07
2018-04-01T21:42:14.348Z,15.23
2018-04-01T21:44:41.488Z,16.20
2018-04-01T21:47:07.778Z,16.20
2018-04-01T21:49:34.471Z,17.07
2018-04-01T21:52:01.517Z,14.60
2018-04-01T21:54:28.554Z,15.53
2018-04-01T21:56:54.870Z,15.07
2018-04-01T21:59:21.136Z,16.60
2018-04-01T22:01:47.452Z,15.67
2018-04-01T22:04:14.591Z,14.23
2018-04-01T22:06:40.937Z,16.73
2018-04-01T22:09:07.967Z,14.83
2018-04-01T22:11:34.299Z,16.13
2018-04-01T22:14:00.583Z,16.07
2018-04-01T22:16:26.876Z,16.03
2018-04-01T22:18:53.907Z,15.83
2018-04-01T22:21:20.180Z,15.83
2018-04-01T22:23:46.508Z,15.27
2018-04-01T22:26:12.799Z,15.13
2018-04-01T22:28:39.146Z,16.20
2018-04-01T22:31:06.304Z,14.20
2018-04-01T22:33:33.331Z,15.27
2018-04-01T22:35:59.646Z,15.23
2018-04-01T22:38:25.950Z,16.00
2018-04-01T22:40:52.661Z,15.70
2018-04-01T22:43:19.669Z,14.53
2018-04-01T22:45:45.937Z,17.33
2018-04-01T22:48:12.977Z,14.93
2018-04-01T22:50:39.275Z,15.07
2018-04-01T22:53:05.629Z,17.30
2018-04-01T22:55:32.653Z,17.10
2018-04-01T22:57:58.983Z,16.60
2018-04-01T23:00:25.295Z,17.30
2018-04-01T23:02:51.593Z,15.97
2018-04-01T23:05:17.886Z,17.27
2018-04-01T23:07:44.229Z,18.00
2018-04-01T23:10:11.285Z,16.70
2018-04-01T23:12:38.305Z,18.23
2018-04-01T23:15:04.640Z,17.13
2018-04-01T23:17:30.957Z,17.33
2018-04-01T23:19:57.232Z,17.73
2018-04-01T23:22:24.252Z,18.30
2018-04-01T23:24:50.564Z,18.03
2018-04-01T23:27:16.825Z,16.83
2018-04-01T23:29:43.158Z,17.87
2018-04-01T23:32:10.244Z,17.63
2018-04-01T23:34:36.546Z,18.67
2018-04-01T23:37:03.572Z,17.80
2018-04-01T23:39:30.208Z,19.70
2018-04-01T23:41:56.518Z,19.90
2018-04-01T23:44:22.824Z,18.83
2018-04-01T23:46:49.116Z,18.70
2018-04-01T23:49:16.135Z,17.37
2018-04-01T23:51:42.459Z,18.03
2018-04-01T23:54:08.760Z,19.63
2018-04-01T23:56:35.053Z,19.47
2018-04-01T23:59:01.390Z,20.73
